createdAt,value
2018-04-28T00:02:26.675Z,13.60
2018-04-28T00:04:55.034Z,11.67
2018-04-28T00:07:25.245Z,9.63
2018-04-28T00:09:53.057Z,9.83
2018-04-28T00:12:21.386Z,13.10
2018-04-28T00:14:49.943Z,11.50
2018-04-28T00:17:18.149Z,12.30
2018-04-28T00:19:46.047Z,12.27
2018-04-28T00:22:14.854Z,11.87
2018-04-28T00:24:43.129Z,8.20
2018-04-28T00:27:11.857Z,10.63
2018-04-28T00:29:39.989Z,11.10
2018-04-28T00:32:09.019Z,11.43
2018-04-28T00:34:38.046Z,12.97
2018-04-28T00:37:06.185Z,12.33
2018-04-28T00:39:34.748Z,11.10
2018-04-28T00:42:04.331Z,10.73
2018-04-28T00:44:32.546Z,9.50
2018-04-28T00:47:01.468Z,10.27
2018-04-28T00:49:29.462Z,9.47
2018-04-28T00:51:57.663Z,9.30
2018-04-28T00:54:28.028Z,9.67
2018-04-28T00:56:55.916Z,8.70
2018-04-28T00:59:23.874Z,10.07
2018-04-28T01:01:52.250Z,11.60
2018-04-28T01:04:20.008Z,9.40
2018-04-28T01:06:47.880Z,9.90
2018-04-28T01:09:16.404Z,15.60
2018-04-28T01:11:44.964Z,9.50
2018-04-28T01:14:12.845Z,10.53
2018-04-28T01:16:41.240Z,9.27
2018-04-28T01:19:09.920Z,13.10
2018-04-28T01:21:38.318Z,10.87
2018-04-28T01:24:06.030Z,9.23
2018-04-28T01:26:34.138Z,10.13
2018-04-28T01:29:02.515Z,16.10
2018-04-28T01:31:32.893Z,10.00
2018-04-28T01:34:01.297Z,11.30
2018-04-28T01:36:34.328Z,9.40
2018-04-28T01:39:02.717Z,11.63
2018-04-28T01:41:31.841Z,11.53
2018-04-28T01:44:02.491Z,9.73
2018-04-28T01:46:31.932Z,12.10
2018-04-28T01:49:02.988Z,13.83
2018-04-28T01:51:32.781Z,10.73
2018-04-28T01:54:03.283Z,10.00
2018-04-28T01:56:33.281Z,9.00
2018-04-28T01:59:05.107Z,10.27
2018-04-28T02:01:34.684Z,10.97
2018-04-28T02:04:08.783Z,11.27
2018-04-28T02:06:38.608Z,10.37
2018-04-28T02:09:08.336Z,11.00
2018-04-28T02:11:37.395Z,10.30
2018-04-28T02:14:06.134Z,9.50
2018-04-28T02:16:35.800Z,9.47
2018-04-28T02:19:05.543Z,10.20
2018-04-28T02:21:34.103Z,9.83
2018-04-28T02:24:02.878Z,10.30
2018-04-28T02:26:31.111Z,10.00
2018-04-28T02:28:59.330Z,13.17
2018-04-28T02:31:29.018Z,10.57
2018-04-28T02:33:58.759Z,9.10
2018-04-28T02:36:27.305Z,10.33
2018-04-28T02:38:55.687Z,10.47
2018-04-28T02:41:24.837Z,10.13
2018-04-28T02:43:52.850Z,9.77
2018-04-28T02:46:20.969Z,11.77
2018-04-28T02:48:48.599Z,9.63
2018-04-28T02:51:16.908Z,9.57
2018-04-28T02:53:45.178Z,10.00
2018-04-28T02:56:13.308Z,9.67
2018-04-28T02:58:42.037Z,9.63
2018-04-28T03:01:09.897Z,11.20
2018-04-28T03:03:38.204Z,10.10
2018-04-28T03:06:06.068Z,10.50
2018-04-28T03:08:34.109Z,9.87
2018-04-28T03:11:05.518Z,9.77
2018-04-28T03:13:33.540Z,9.20
2018-04-28T03:16:01.642Z,13.87
2018-04-28T03:18:29.654Z,8.93
2018-04-28T03:20:58.249Z,9.77
2018-04-28T03:23:27.496Z,8.93
2018-04-28T03:25:56.265Z,11.30
2018-04-28T03:28:24.895Z,9.27
2018-04-28T03:30:53.294Z,8.07
2018-04-28T03:33:22.015Z,9.80
2018-04-28T03:35:50.265Z,8.97
2018-04-28T03:38:19.031Z,9.23
2018-04-28T03:40:47.929Z,9.77
2018-04-28T03:43:15.780Z,8.97
2018-04-28T03:45:45.049Z,10.13
2018-04-28T03:48:13.379Z,9.43
2018-04-28T03:50:41.280Z,10.00
2018-04-28T03:53:08.991Z,10.10
2018-04-28T03:55:36.988Z,9.47
2018-04-28T03:58:04.848Z,9.70
2018-04-28T04:00:33.663Z,10.30
2018-04-28T04:03:02.810Z,10.73
2018-04-28T04:05:31.644Z,9.90
2018-04-28T04:07:59.798Z,10.23
2018-04-28T04:10:27.741Z,12.00
2018-04-28T04:12:56.636Z,9.00
2018-04-28T04:15:25.765Z,10.73
2018-04-28T04:17:54.107Z,9.50
2018-04-28T04:20:22.319Z,9.47
2018-04-28T04:22:50.142Z,9.40
2018-04-28T04:25:17.819Z,9.37
2018-04-28T04:27:46.809Z,11.60
2018-04-28T04:30:14.384Z,9.40
2018-04-28T04:32:42.114Z,9.50
2018-04-28T04:35:10.500Z,9.43
2018-04-28T04:37:38.370Z,10.20
2018-04-28T04:40:06.168Z,8.73
2018-04-28T04:42:34.988Z,10.97
2018-04-28T04:45:02.933Z,9.27
2018-04-28T04:47:31.164Z,9.50
2018-04-28T04:49:59.452Z,8.97
2018-04-28T04:52:27.321Z,8.33
2018-04-28T04:54:54.953Z,10.43
2018-04-28T04:57:22.505Z,9.40
2018-04-28T04:59:50.431Z,10.53
2018-04-28T05:02:18.258Z,9.43
2018-04-28T05:04:45.969Z,10.07
2018-04-28T05:07:14.479Z,12.17
2018-04-28T05:09:43.246Z,9.43
2018-04-28T05:12:12.017Z,9.70
2018-04-28T05:14:40.739Z,9.37
2018-04-28T05:17:09.688Z,8.60
2018-04-28T05:19:37.668Z,9.47
2018-04-28T05:22:05.827Z,8.50
2018-04-28T05:24:34.225Z,9.20
2018-04-28T05:27:02.277Z,10.00
2018-04-28T05:29:30.119Z,9.30
2018-04-28T05:31:58.047Z,9.13
2018-04-28T05:34:26.071Z,8.00
2018-04-28T05:36:54.051Z,10.00
2018-04-28T05:39:21.866Z,9.13
2018-04-28T05:41:49.501Z,8.67
2018-04-28T05:44:17.921Z,8.10
2018-04-28T05:46:45.678Z,9.77
2018-04-28T05:49:13.984Z,8.37
2018-04-28T05:51:43.094Z,9.80
2018-04-28T05:54:10.757Z,11.67
2018-04-28T05:56:38.693Z,7.97
2018-04-28T05:59:06.316Z,8.17
2018-04-28T06:01:33.986Z,9.20
2018-04-28T06:04:02.119Z,8.00
2018-04-28T06:06:30.051Z,7.93
2018-04-28T06:08:57.858Z,7.67
2018-04-28T06:11:26.044Z,7.40
2018-04-28T06:13:53.902Z,7.43
2018-04-28T06:16:22.088Z,7.60
2018-04-28T06:18:49.961Z,9.07
2018-04-28T06:21:18.309Z,8.53
2018-04-28T06:23:46.913Z,8.47
2018-04-28T06:26:14.666Z,7.70
2018-04-28T06:28:42.402Z,7.43
2018-04-28T06:31:10.299Z,8.43
2018-04-28T06:33:38.044Z,8.70
2018-04-28T06:36:06.056Z,7.80
2018-04-28T06:38:33.860Z,9.40
2018-04-28T06:41:02.339Z,9.40
2018-04-28T06:43:30.148Z,11.47
2018-04-28T06:45:58.537Z,11.23
2018-04-28T06:48:27.033Z,10.07
2018-04-28T06:50:54.670Z,8.07
2018-04-28T06:53:22.337Z,7.20
2018-04-28T06:55:49.993Z,8.30
2018-04-28T06:58:17.777Z,7.53
2018-04-28T07:00:45.540Z,8.27
2018-04-28T07:03:13.343Z,9.50
2018-04-28T07:05:41.354Z,6.90
2018-04-28T07:08:09.029Z,8.27
2018-04-28T07:10:38.018Z,8.20
2018-04-28T07:13:05.874Z,7.70
2018-04-28T07:15:34.144Z,8.00
2018-04-28T07:18:02.300Z,7.83
2018-04-28T07:20:30.714Z,7.93
2018-04-28T07:22:58.542Z,7.53
2018-04-28T07:25:26.747Z,6.70
2018-04-28T07:27:54.520Z,8.67
2018-04-28T07:30:22.208Z,7.60
2018-04-28T07:32:49.997Z,8.07
2018-04-28T07:35:17.805Z,6.87
2018-04-28T07:37:45.486Z,8.20
2018-04-28T07:40:13.610Z,11.70
2018-04-28T07:42:41.277Z,7.73
2018-04-28T07:45:09.161Z,8.33
2018-04-28T07:47:36.932Z,6.77
2018-04-28T07:50:05.416Z,8.33
2018-04-28T07:52:33.072Z,7.43
2018-04-28T07:55:00.769Z,7.53
2018-04-28T07:57:28.551Z,6.90
2018-04-28T07:59:57.599Z,6.63
2018-04-28T08:02:25.379Z,7.37
2018-04-28T08:04:53.190Z,8.67
2018-04-28T08:07:21.008Z,6.50
2018-04-28T08:09:48.668Z,7.37
2018-04-28T08:12:16.275Z,7.63
2018-04-28T08:14:44.408Z,7.73
2018-04-28T08:17:13.340Z,7.23
2018-04-28T08:19:42.142Z,6.67
2018-04-28T08:22:10.040Z,7.07
2018-04-28T08:24:38.028Z,6.17
2018-04-28T08:27:05.888Z,6.40
2018-04-28T08:29:33.651Z,7.00
2018-04-28T08:32:01.563Z,6.97
2018-04-28T08:34:29.339Z,6.50
2018-04-28T08:36:57.396Z,9.23
2018-04-28T08:39:25.217Z,6.93
2018-04-28T08:41:53.773Z,6.80
2018-04-28T08:44:21.784Z,6.07
2018-04-28T08:46:49.951Z,8.77
2018-04-28T08:49:17.953Z,6.73
2018-04-28T08:51:46.328Z,5.73
2018-04-28T08:54:13.965Z,7.53
2018-04-28T08:56:41.937Z,6.97
2018-04-28T08:59:10.246Z,6.60
2018-04-28T09:01:38.110Z,6.60
2018-04-28T09:04:05.909Z,7.33
2018-04-28T09:06:33.736Z,5.83
2018-04-28T09:09:01.374Z,6.57
2018-04-28T09:11:29.831Z,5.73
2018-04-28T09:13:57.649Z,6.50
2018-04-28T09:16:25.662Z,6.13
2018-04-28T09:18:54.046Z,6.10
2018-04-28T09:21:22.698Z,6.60
2018-04-28T09:23:52.003Z,6.30
2018-04-28T09:26:19.811Z,5.87
2018-04-28T09:28:47.508Z,7.10
2018-04-28T09:31:15.600Z,6.67
2018-04-28T09:33:43.492Z,7.60
2018-04-28T09:36:11.125Z,6.47
2018-04-28T09:38:38.864Z,6.40
2018-04-28T09:41:07.095Z,6.00
2018-04-28T09:43:34.806Z,6.40
2018-04-28T09:46:02.586Z,6.23
2018-04-28T09:48:30.531Z,5.90
2018-04-28T09:50:58.224Z,7.27
2018-04-28T09:53:26.006Z,6.60
2018-04-28T09:55:53.914Z,7.00
2018-04-28T09:58:21.755Z,5.83
2018-04-28T10:00:49.827Z,6.57
2018-04-28T10:03:18.274Z,5.30
2018-04-28T10:05:46.008Z,5.57
2018-04-28T10:08:13.950Z,7.17
2018-04-28T10:10:43.010Z,5.87
2018-04-28T10:13:10.731Z,5.20
2018-04-28T10:15:39.432Z,5.27
2018-04-28T10:18:07.598Z,5.50
2018-04-28T10:20:35.497Z,5.83
2018-04-28T10:23:03.150Z,6.13
2018-04-28T10:25:31.999Z,5.90
2018-04-28T10:27:59.958Z,5.30
2018-04-28T10:30:27.897Z,5.23
2018-04-28T10:32:55.841Z,5.23
2018-04-28T10:35:24.236Z,5.40
2018-04-28T10:37:52.095Z,6.20
2018-04-28T10:40:21.289Z,5.00
2018-04-28T10:42:49.896Z,5.60
2018-04-28T10:45:18.662Z,5.80
2018-04-28T10:47:46.321Z,5.33
2018-04-28T10:50:14.515Z,5.57
2018-04-28T10:52:42.434Z,5.33
2018-04-28T10:55:10.324Z,5.60
2018-04-28T10:57:38.404Z,5.50
2018-04-28T11:00:06.518Z,6.57
2018-04-28T11:02:34.718Z,5.00
2018-04-28T11:05:02.757Z,5.83
2018-04-28T11:07:31.900Z,5.63
2018-04-28T11:10:00.438Z,6.23
2018-04-28T11:12:28.968Z,4.90
2018-04-28T11:14:56.938Z,5.47
2018-04-28T11:17:24.873Z,6.47
2018-04-28T11:19:53.647Z,5.80
2018-04-28T11:22:21.633Z,4.90
2018-04-28T11:24:49.758Z,4.70
2018-04-28T11:27:17.834Z,4.63
2018-04-28T11:29:45.568Z,7.50
2018-04-28T11:32:13.062Z,5.40
2018-04-28T11:34:40.931Z,5.30
2018-04-28T11:37:08.852Z,8.63
2018-04-28T11:39:36.812Z,6.50
2018-04-28T11:42:04.586Z,7.23
2018-04-28T11:44:32.361Z,4.77
2018-04-28T11:47:01.015Z,6.40
2018-04-28T11:49:29.329Z,6.60
2018-04-28T11:51:57.153Z,7.70
2018-04-28T11:54:24.895Z,4.77
2018-04-28T11:56:53.771Z,6.17
2018-04-28T11:59:21.739Z,5.33
2018-04-28T12:01:50.346Z,5.07
2018-04-28T12:04:18.038Z,5.77
2018-04-28T12:06:45.786Z,6.47
2018-04-28T12:09:14.437Z,5.20
2018-04-28T12:11:42.250Z,10.00
2018-04-28T12:14:11.128Z,5.97
2018-04-28T12:16:38.995Z,6.70
2018-04-28T12:19:06.714Z,55.67
2018-04-28T12:21:35.332Z,16.23
2018-04-28T12:24:03.469Z,12.53
2018-04-28T12:26:31.119Z,10.33
2018-04-28T12:28:58.742Z,10.07
2018-04-28T12:31:27.222Z,11.30
2018-04-28T12:33:55.771Z,11.10
2018-04-28T12:36:24.027Z,12.77
2018-04-28T12:38:52.462Z,10.80
2018-04-28T12:41:21.418Z,10.90
2018-04-28T12:43:49.254Z,11.77
2018-04-28T12:46:16.834Z,11.97
2018-04-28T12:48:44.832Z,10.50
2018-04-28T12:51:13.077Z,11.43
2018-04-28T12:53:41.157Z,10.30
2018-04-28T12:56:08.906Z,11.87
2018-04-28T12:58:37.178Z,9.10
2018-04-28T13:01:05.043Z,12.13
2018-04-28T13:03:33.610Z,10.90
2018-04-28T13:06:01.807Z,11.63
2018-04-28T13:08:29.699Z,34.57
2018-04-28T13:10:57.459Z,14.50
2018-04-28T13:13:25.442Z,18.03
2018-04-28T13:15:53.115Z,16.73
2018-04-28T13:18:21.186Z,15.63
2018-04-28T13:20:49.019Z,14.10
2018-04-28T13:23:16.926Z,18.53
2018-04-28T13:25:45.631Z,16.53
2018-04-28T13:28:13.509Z,16.20
2018-04-28T13:30:42.022Z,23.30
2018-04-28T13:33:09.708Z,15.80
2018-04-28T13:35:37.636Z,22.73
2018-04-28T13:38:05.828Z,18.73
2018-04-28T13:40:33.818Z,17.43
2018-04-28T13:43:02.973Z,18.33
2018-04-28T13:45:31.492Z,25.97
2018-04-28T13:47:59.329Z,20.73
2018-04-28T13:50:27.203Z,16.53
2018-04-28T13:52:55.406Z,29.93
2018-04-28T13:55:24.257Z,21.00
2018-04-28T13:57:52.293Z,27.20
2018-04-28T14:00:20.242Z,28.27
2018-04-28T14:02:49.683Z,19.37
2018-04-28T14:05:18.398Z,20.63
2018-04-28T14:07:46.417Z,18.00
2018-04-28T14:10:14.672Z,23.00
2018-04-28T14:12:42.765Z,23.40
2018-04-28T14:15:10.840Z,25.40
2018-04-28T14:17:38.810Z,37.37
2018-04-28T14:20:06.598Z,39.23
2018-04-28T14:22:35.180Z,41.63
2018-04-28T14:25:02.914Z,41.60
2018-04-28T14:27:30.575Z,42.50
2018-04-28T14:30:00.539Z,44.73
2018-04-28T14:32:28.804Z,35.97
2018-04-28T14:34:57.709Z,37.93
2018-04-28T14:37:26.371Z,43.00
2018-04-28T14:39:54.447Z,30.03
2018-04-28T14:42:22.371Z,31.77
2018-04-28T14:44:51.506Z,41.03
2018-04-28T14:47:19.751Z,29.27
2018-04-28T14:49:48.113Z,28.73
2018-04-28T14:52:16.388Z,34.63
2018-04-28T14:54:45.105Z,28.53
2018-04-28T14:57:12.964Z,27.23
2018-04-28T14:59:41.167Z,30.23
2018-04-28T15:02:09.494Z,27.80
2018-04-28T15:04:38.125Z,26.93
2018-04-28T15:07:06.142Z,28.13
2018-04-28T15:09:34.054Z,30.20
2018-04-28T15:12:03.768Z,27.87
2018-04-28T15:14:32.524Z,26.43
2018-04-28T15:17:01.227Z,27.57
2018-04-28T15:19:29.922Z,24.03
2018-04-28T15:21:57.572Z,25.80
2018-04-28T15:24:25.604Z,25.60
2018-04-28T15:26:55.449Z,29.63
2018-04-28T15:29:23.991Z,29.53
2018-04-28T15:31:52.058Z,25.10
2018-04-28T15:34:20.868Z,26.47
2018-04-28T15:36:49.255Z,28.37
2018-04-28T15:39:17.516Z,21.23
2018-04-28T15:41:45.713Z,31.43
2018-04-28T15:44:14.009Z,27.33
2018-04-28T15:46:42.057Z,27.83
2018-04-28T15:49:10.976Z,22.00
2018-04-28T15:51:39.494Z,23.83
2018-04-28T15:54:07.160Z,22.40
2018-04-28T15:56:35.027Z,23.50
2018-04-28T15:59:03.694Z,22.87
2018-04-28T16:01:32.021Z,30.23
2018-04-28T16:04:00.272Z,20.27
2018-04-28T16:06:29.176Z,23.13
2018-04-28T16:08:57.793Z,18.63
2018-04-28T16:11:26.191Z,22.63
2018-04-28T16:13:54.392Z,20.53
2018-04-28T16:16:22.684Z,20.93
2018-04-28T16:18:50.737Z,20.57
2018-04-28T16:21:18.862Z,23.50
2018-04-28T16:23:47.937Z,21.30
2018-04-28T16:26:16.124Z,22.23
2018-04-28T16:28:44.184Z,25.60
2018-04-28T16:31:12.153Z,24.20
2018-04-28T16:33:39.930Z,22.80
2018-04-28T16:36:07.774Z,23.43
2018-04-28T16:38:35.900Z,24.40
2018-04-28T16:41:03.678Z,26.57
2018-04-28T16:43:31.459Z,22.57
2018-04-28T16:45:59.506Z,21.90
2018-04-28T16:48:28.145Z,20.60
2018-04-28T16:50:55.951Z,19.40
2018-04-28T16:53:24.589Z,19.90
2018-04-28T16:55:53.210Z,23.77
2018-04-28T16:58:21.222Z,18.87
2018-04-28T17:00:50.711Z,20.00
2018-04-28T17:03:18.871Z,20.70
2018-04-28T17:05:47.082Z,20.03
2018-04-28T17:08:15.075Z,20.10
2018-04-28T17:10:43.636Z,24.33
2018-04-28T17:13:13.074Z,20.03
2018-04-28T17:15:40.975Z,19.27
2018-04-28T17:18:10.263Z,17.93
2018-04-28T17:20:38.196Z,21.47
2018-04-28T17:23:07.059Z,21.43
2018-04-28T17:25:35.022Z,22.20
2018-04-28T17:28:02.866Z,19.33
2018-04-28T17:30:31.130Z,19.27
2018-04-28T17:32:59.371Z,19.80
2018-04-28T17:35:27.536Z,18.73
2018-04-28T17:37:55.648Z,19.73
2018-04-28T17:40:23.404Z,18.53
2018-04-28T17:42:51.380Z,18.10
2018-04-28T17:45:19.072Z,18.20
2018-04-28T17:47:47.404Z,18.17
2018-04-28T17:50:15.195Z,18.63
2018-04-28T17:52:43.732Z,17.37
2018-04-28T17:55:11.632Z,20.33
2018-04-28T17:57:39.572Z,15.93
2018-04-28T18:00:07.475Z,16.93
2018-04-28T18:02:35.451Z,16.60
2018-04-28T18:05:04.217Z,16.60
2018-04-28T18:07:33.401Z,16.40
2018-04-28T18:10:01.683Z,16.37
2018-04-28T18:12:30.306Z,16.30
2018-04-28T18:14:58.668Z,17.20
2018-04-28T18:17:26.719Z,16.40
2018-04-28T18:19:56.135Z,16.60
2018-04-28T18:22:24.756Z,16.67
2018-04-28T18:24:52.953Z,16.10
2018-04-28T18:27:21.055Z,16.10
2018-04-28T18:29:48.994Z,15.47
2018-04-28T18:32:16.969Z,14.13
2018-04-28T18:34:44.881Z,15.53
2018-04-28T18:37:13.635Z,16.37
2018-04-28T18:39:41.748Z,14.43
2018-04-28T18:42:09.684Z,14.73
2018-04-28T18:44:38.364Z,16.27
2018-04-28T18:47:05.831Z,17.13
2018-04-28T18:49:34.692Z,16.80
2018-04-28T18:52:03.267Z,15.10
2018-04-28T18:54:31.626Z,14.70
2018-04-28T18:57:01.892Z,15.40
2018-04-28T18:59:30.382Z,15.53
2018-04-28T19:01:58.469Z,14.93
2018-04-28T19:04:27.416Z,17.70
2018-04-28T19:06:55.409Z,16.67
2018-04-28T19:09:23.224Z,14.87
2018-04-28T19:11:51.212Z,16.93
2018-04-28T19:14:19.087Z,19.60
2018-04-28T19:16:47.373Z,17.43
2018-04-28T19:19:16.379Z,19.50
2018-04-28T19:21:45.066Z,20.13
2018-04-28T19:24:12.896Z,23.23
2018-04-28T19:26:40.880Z,18.70
2018-04-28T19:29:09.081Z,21.30
2018-04-28T19:31:42.002Z,17.43
2018-04-28T19:34:13.419Z,16.87
2018-04-28T19:36:42.373Z,20.53
2018-04-28T19:39:11.098Z,19.17
2018-04-28T19:41:38.958Z,16.60
2018-04-28T19:44:07.844Z,18.47
2018-04-28T19:46:37.291Z,18.73
2018-04-28T19:49:07.826Z,16.67
2018-04-28T19:51:35.895Z,18.53
2018-04-28T19:54:05.788Z,16.03
2018-04-28T19:56:34.228Z,16.37
2018-04-28T19:59:02.350Z,15.60
2018-04-28T20:01:30.860Z,14.80
2018-04-28T20:03:59.157Z,15.80
2018-04-28T20:06:27.284Z,15.53
2018-04-28T20:08:55.387Z,17.43
2018-04-28T20:11:24.527Z,18.37
2018-04-28T20:13:57.755Z,15.20
2018-04-28T20:16:26.264Z,19.07
2018-04-28T20:18:54.862Z,16.60
2018-04-28T20:21:23.074Z,12.53
2018-04-28T20:23:51.875Z,15.03
2018-04-28T20:26:21.184Z,12.27
2018-04-28T20:28:49.289Z,16.07
2018-04-28T20:31:20.123Z,13.00
2018-04-28T20:33:49.075Z,11.33
2018-04-28T20:36:19.180Z,15.53
2018-04-28T20:38:51.445Z,16.60
2018-04-28T20:41:20.240Z,12.20
2018-04-28T20:43:50.687Z,16.97
2018-04-28T20:46:20.950Z,16.63
2018-04-28T20:48:50.297Z,17.77
2018-04-28T20:51:18.954Z,21.77
2018-04-28T20:53:47.326Z,33.33
2018-04-28T20:56:15.721Z,22.10
2018-04-28T20:58:43.790Z,69.00
2018-04-28T21:01:12.874Z,30.03
2018-04-28T21:03:41.992Z,27.03
2018-04-28T21:06:09.920Z,34.37
2018-04-28T21:08:38.628Z,27.20
2018-04-28T21:11:07.806Z,28.60
2018-04-28T21:13:37.639Z,25.20
2018-04-28T21:16:06.040Z,33.97
2018-04-28T21:18:34.334Z,20.50
2018-04-28T21:21:03.176Z,23.23
2018-04-28T21:23:33.412Z,25.20
2018-04-28T21:26:05.873Z,26.33
2018-04-28T21:28:35.724Z,23.83
2018-04-28T21:31:04.619Z,18.70
2018-04-28T21:33:33.321Z,24.80
2018-04-28T21:36:02.359Z,20.60
2018-04-28T21:38:30.488Z,104.73
2018-04-28T21:40:59.730Z,66.90
2018-04-28T21:43:27.955Z,48.17
2018-04-28T21:45:56.901Z,58.87
2018-04-28T21:48:25.740Z,67.57
2018-04-28T21:50:53.942Z,72.07
2018-04-28T21:53:22.455Z,103.73
2018-04-28T21:55:50.718Z,101.43
2018-04-28T21:58:19.084Z,96.00
2018-04-28T22:00:47.134Z,93.20
2018-04-28T22:03:15.006Z,100.07
2018-04-28T22:05:45.048Z,91.93
2018-04-28T22:08:13.115Z,88.63
2018-04-28T22:10:41.024Z,92.80
2018-04-28T22:13:11.308Z,85.53
2018-04-28T22:15:39.767Z,88.97
2018-04-28T22:18:07.735Z,88.33
2018-04-28T22:20:35.833Z,82.13
2018-04-28T22:23:04.771Z,83.47
2018-04-28T22:25:33.721Z,84.93
2018-04-28T22:28:02.913Z,100.67
2018-04-28T22:30:32.325Z,99.60
2018-04-28T22:33:01.677Z,103.70
2018-04-28T22:35:30.016Z,104.70
2018-04-28T22:37:58.325Z,97.87
2018-04-28T22:40:28.502Z,103.77
2018-04-28T22:42:57.543Z,100.00
2018-04-28T22:45:26.091Z,104.33
2018-04-28T22:47:55.193Z,102.50
2018-04-28T22:50:23.828Z,105.03
2018-04-28T22:52:52.078Z,98.20
2018-04-28T22:55:21.515Z,98.70
2018-04-28T22:57:50.083Z,102.47
2018-04-28T23:00:18.068Z,96.57
2018-04-28T23:02:46.124Z,102.73
2018-04-28T23:05:14.394Z,104.73
2018-04-28T23:07:42.941Z,110.27
2018-04-28T23:10:11.137Z,100.40
2018-04-28T23:12:39.722Z,95.30
2018-04-28T23:15:08.540Z,108.00
2018-04-28T23:17:38.081Z,100.17
2018-04-28T23:20:07.180Z,99.13
2018-04-28T23:22:35.102Z,99.67
2018-04-28T23:25:03.153Z,102.77
2018-04-28T23:27:31.306Z,98.73
2018-04-28T23:29:59.577Z,102.60
2018-04-28T23:32:27.819Z,105.27
2018-04-28T23:34:56.751Z,100.20
2018-04-28T23:37:25.322Z,99.75
2018-04-28T23:39:53.544Z,106.57
2018-04-28T23:42:22.897Z,105.23
2018-04-28T23:44:51.332Z,107.67
2018-04-28T23:47:20.053Z,115.10
2018-04-28T23:49:50.076Z,107.77
2018-04-28T23:52:19.128Z,106.70
2018-04-28T23:54:48.086Z,98.37
2018-04-28T23:57:16.221Z,113.13
2018-04-28T23:59:45.306Z,109.10
